createdAt,value
2023-01-07T00:01:01.236Z,11.10
2023-01-07T00:03:28.833Z,11.10
2023-01-07T00:06:14.859Z,11.10
2023-01-07T00:08:42.609Z,11.10
2023-01-07T00:11:14.105Z,11.10
2023-01-07T00:13:41.020Z,11.10
2023-01-07T00:16:09.233Z,11.20
2023-01-07T00:18:36.547Z,11.10
2023-01-07T00:21:05.030Z,11.20
2023-01-07T00:23:32.410Z,11.20
2023-01-07T00:26:00.935Z,11.10
2023-01-07T00:28:28.074Z,11.20
2023-01-07T00:31:01.379Z,11.20
2023-01-07T00:33:28.689Z,11.20
2023-01-07T00:36:00.587Z,11.20
2023-01-07T00:38:27.748Z,11.20
2023-01-07T00:40:54.733Z,11.20
2023-01-07T00:43:21.878Z,11.20
2023-01-07T00:45:48.763Z,11.20
2023-01-07T00:48:15.922Z,11.20
2023-01-07T00:50:42.886Z,11.20
2023-01-07T00:53:10.433Z,11.20
2023-01-07T00:55:37.421Z,11.20
2023-01-07T00:58:04.724Z,11.20
2023-01-07T01:00:31.751Z,11.20
2023-01-07T01:02:59.535Z,11.20
2023-01-07T01:05:26.588Z,11.20
2023-01-07T01:07:53.500Z,11.20
2023-01-07T01:10:20.475Z,11.20
2023-01-07T01:12:50.680Z,11.20
2023-01-07T01:15:17.666Z,11.20
2023-01-07T01:17:44.634Z,11.20
2023-01-07T01:20:13.169Z,11.20
2023-01-07T01:22:40.137Z,11.20
2023-01-07T01:25:07.652Z,11.20
2023-01-07T01:27:34.514Z,11.20
2023-01-07T01:30:02.319Z,11.20
2023-01-07T01:32:30.252Z,11.30
2023-01-07T01:34:57.296Z,11.20
2023-01-07T01:37:24.304Z,11.20
2023-01-07T01:39:51.398Z,11.20
2023-01-07T01:42:21.743Z,11.20
2023-01-07T01:44:50.647Z,11.30
2023-01-07T01:47:32.662Z,11.20
2023-01-07T01:50:16.383Z,11.20
2023-01-07T01:52:48.465Z,11.20
2023-01-07T01:55:17.220Z,11.20
2023-01-07T01:57:44.257Z,11.30
2023-01-07T02:00:11.999Z,11.30
2023-01-07T02:03:01.546Z,11.30
2023-01-07T02:05:33.028Z,11.30
2023-01-07T02:07:59.974Z,11.20
2023-01-07T02:10:28.684Z,11.20
2023-01-07T02:13:03.844Z,11.20
2023-01-07T02:15:46.031Z,11.20
2023-01-07T02:18:12.972Z,11.30
2023-01-07T02:21:03.132Z,11.20
2023-01-07T02:23:36.153Z,11.30
2023-01-07T02:26:06.241Z,11.20
2023-01-07T02:29:02.772Z,11.20
2023-01-07T02:31:48.458Z,11.30
2023-01-07T02:34:29.140Z,11.20
2023-01-07T02:36:59.049Z,11.20
2023-01-07T02:39:26.038Z,11.20
2023-01-07T02:42:05.144Z,11.30
2023-01-07T02:44:38.246Z,11.20
2023-01-07T02:47:20.284Z,11.20
2023-01-07T02:49:48.559Z,11.20
2023-01-07T02:52:19.330Z,11.20
2023-01-07T02:54:49.026Z,11.20
2023-01-07T02:57:25.491Z,11.20
2023-01-07T02:59:59.392Z,11.20
2023-01-07T03:02:33.650Z,11.20
2023-01-07T03:05:18.053Z,11.20
2023-01-07T03:08:00.250Z,11.20
2023-01-07T03:10:35.605Z,11.20
2023-01-07T03:13:22.799Z,11.20
2023-01-07T03:16:08.396Z,11.20
2023-01-07T03:18:38.039Z,11.20
2023-01-07T03:21:07.672Z,11.20
2023-01-07T03:23:37.435Z,11.20
2023-01-07T03:26:06.042Z,11.20
2023-01-07T03:28:36.150Z,11.20
2023-01-07T03:31:03.999Z,11.20
2023-01-07T03:33:35.381Z,11.20
2023-01-07T03:36:03.860Z,11.20
2023-01-07T03:38:30.969Z,11.20
2023-01-07T03:40:59.498Z,11.20
2023-01-07T03:43:26.404Z,11.20
2023-01-07T03:45:53.926Z,11.10
2023-01-07T03:48:20.831Z,11.20
2023-01-07T03:50:48.986Z,11.10
2023-01-07T03:53:16.709Z,11.10
2023-01-07T03:55:47.591Z,11.10
2023-01-07T03:58:14.580Z,11.10
2023-01-07T04:00:41.466Z,11.10
2023-01-07T04:03:16.734Z,11.10
2023-01-07T04:05:46.256Z,11.10
2023-01-07T04:08:13.810Z,11.10
2023-01-07T04:10:41.667Z,11.10
2023-01-07T04:13:12.497Z,11.00
2023-01-07T04:15:42.685Z,11.00
2023-01-07T04:18:09.708Z,11.00
2023-01-07T04:20:36.658Z,11.00
2023-01-07T04:23:04.462Z,11.00
2023-01-07T04:25:32.418Z,11.00
2023-01-07T04:28:01.890Z,11.00
2023-01-07T04:30:29.788Z,11.00
2023-01-07T04:32:56.727Z,11.00
2023-01-07T04:35:23.707Z,11.00
2023-01-07T04:37:50.792Z,11.00
2023-01-07T04:40:17.733Z,11.00
2023-01-07T04:42:45.052Z,11.00
2023-01-07T04:45:12.681Z,10.90
2023-01-07T04:47:39.911Z,11.00
2023-01-07T04:50:07.256Z,10.90
2023-01-07T04:52:35.748Z,10.90
2023-01-07T04:55:03.631Z,10.90
2023-01-07T04:57:30.765Z,10.90
2023-01-07T04:59:58.455Z,10.90
2023-01-07T05:02:25.787Z,10.90
2023-01-07T05:04:53.435Z,10.90
2023-01-07T05:07:21.397Z,10.90
2023-01-07T05:09:48.780Z,10.90
2023-01-07T05:12:15.933Z,10.90
2023-01-07T05:14:43.512Z,10.90
2023-01-07T05:17:10.668Z,10.90
2023-01-07T05:19:39.375Z,10.90
2023-01-07T05:22:09.718Z,10.90
2023-01-07T05:24:39.792Z,10.90
2023-01-07T05:27:07.487Z,10.90
2023-01-07T05:29:36.066Z,10.90
2023-01-07T05:32:03.171Z,10.90
2023-01-07T05:34:30.757Z,10.90
2023-01-07T05:36:58.347Z,10.90
2023-01-07T05:39:26.343Z,10.80
2023-01-07T05:41:53.923Z,10.90
2023-01-07T05:44:23.039Z,10.90
2023-01-07T05:46:49.971Z,10.90
2023-01-07T05:49:16.955Z,10.90
2023-01-07T05:51:43.891Z,10.80
2023-01-07T05:54:10.933Z,10.80
2023-01-07T05:56:37.872Z,10.80
2023-01-07T05:59:04.801Z,10.80
2023-01-07T06:01:31.825Z,10.80
2023-01-07T06:03:58.812Z,10.80
2023-01-07T06:06:25.699Z,10.80
2023-01-07T06:08:52.569Z,10.80
2023-01-07T06:11:19.458Z,10.80
2023-01-07T06:13:46.342Z,10.80
2023-01-07T06:16:13.746Z,10.80
2023-01-07T06:18:40.659Z,10.80
2023-01-07T06:21:07.574Z,10.80
2023-01-07T06:23:34.550Z,10.80
2023-01-07T06:26:01.426Z,10.70
2023-01-07T06:28:28.397Z,10.70
2023-01-07T06:30:55.487Z,10.70
2023-01-07T06:33:22.449Z,10.70
2023-01-07T06:35:49.329Z,10.70
2023-01-07T06:38:16.268Z,10.70
2023-01-07T06:40:44.742Z,10.70
2023-01-07T06:43:15.170Z,10.70
2023-01-07T06:45:42.062Z,10.70
2023-01-07T06:48:08.946Z,10.70
2023-01-07T06:50:35.903Z,10.70
2023-01-07T06:53:02.874Z,10.70
2023-01-07T06:55:29.790Z,10.70
2023-01-07T06:57:56.647Z,10.70
2023-01-07T07:00:23.612Z,10.70
2023-01-07T07:02:50.581Z,10.70
2023-01-07T07:05:17.629Z,10.70
2023-01-07T07:07:44.529Z,10.70
2023-01-07T07:10:11.555Z,10.70
2023-01-07T07:12:38.763Z,10.70
2023-01-07T07:15:06.528Z,10.70
2023-01-07T07:17:33.466Z,10.60
2023-01-07T07:20:00.415Z,10.60
2023-01-07T07:22:27.272Z,10.60
2023-01-07T07:24:54.183Z,10.60
2023-01-07T07:27:21.049Z,10.60
2023-01-07T07:29:47.923Z,10.60
2023-01-07T07:32:14.789Z,10.60
2023-01-07T07:34:41.635Z,10.60
2023-01-07T07:37:08.505Z,10.50
2023-01-07T07:39:35.369Z,10.50
2023-01-07T07:42:03.232Z,10.50
2023-01-07T07:44:30.081Z,10.50
2023-01-07T07:46:56.982Z,10.50
2023-01-07T07:49:23.825Z,10.50
2023-01-07T07:51:50.661Z,10.40
2023-01-07T07:54:17.606Z,10.50
2023-01-07T07:56:44.555Z,10.40
2023-01-07T07:59:11.490Z,10.40
2023-01-07T08:01:38.553Z,10.40
2023-01-07T08:04:05.584Z,10.40
2023-01-07T08:06:35.411Z,10.40
2023-01-07T08:09:02.281Z,10.40
2023-01-07T08:11:29.217Z,10.40
2023-01-07T08:13:56.214Z,10.40
2023-01-07T08:16:23.163Z,10.40
2023-01-07T08:18:50.016Z,10.40
2023-01-07T08:21:16.893Z,10.40
2023-01-07T08:23:43.803Z,10.40
2023-01-07T08:26:10.651Z,10.40
2023-01-07T08:28:37.862Z,10.40
2023-01-07T08:31:05.556Z,10.30
2023-01-07T08:33:37.600Z,10.40
2023-01-07T08:36:09.314Z,10.40
2023-01-07T08:38:36.452Z,10.40
2023-01-07T08:41:03.437Z,10.30
2023-01-07T08:43:30.725Z,10.30
2023-01-07T08:45:57.568Z,10.30
2023-01-07T08:48:24.413Z,10.30
2023-01-07T08:50:52.213Z,10.30
2023-01-07T08:53:19.479Z,10.30
2023-01-07T08:55:46.588Z,10.30
2023-01-07T08:58:13.675Z,10.30
2023-01-07T09:00:41.161Z,10.30
2023-01-07T09:03:08.051Z,10.30
2023-01-07T09:05:35.466Z,10.30
2023-01-07T09:08:03.811Z,10.30
2023-01-07T09:10:31.078Z,10.30
2023-01-07T09:12:58.303Z,10.30
2023-01-07T09:15:25.279Z,10.30
2023-01-07T09:17:52.251Z,10.30
2023-01-07T09:20:19.346Z,10.30
2023-01-07T09:22:46.517Z,10.30
2023-01-07T09:25:13.485Z,10.30
2023-01-07T09:27:40.734Z,10.30
2023-01-07T09:30:09.428Z,10.30
2023-01-07T09:32:36.488Z,10.30
2023-01-07T09:35:04.073Z,10.30
2023-01-07T09:37:31.027Z,10.30
2023-01-07T09:39:57.939Z,10.30
2023-01-07T09:42:43.459Z,10.30
2023-01-07T09:45:22.083Z,10.30
2023-01-07T09:47:54.320Z,10.30
2023-01-07T09:50:39.658Z,10.30
2023-01-07T09:53:10.299Z,10.30
2023-01-07T09:55:38.020Z,10.30
2023-01-07T09:58:24.904Z,10.20
2023-01-07T10:00:57.633Z,10.30
2023-01-07T10:03:43.381Z,10.20
2023-01-07T10:06:32.376Z,10.20
2023-01-07T10:09:24.031Z,10.20
2023-01-07T10:11:57.749Z,10.20
2023-01-07T10:14:33.713Z,10.20
2023-01-07T10:17:22.054Z,10.20
2023-01-07T10:19:58.337Z,10.20
2023-01-07T10:22:36.162Z,10.20
2023-01-07T10:25:15.350Z,10.20
2023-01-07T10:27:44.862Z,10.20
2023-01-07T10:30:18.365Z,10.20
2023-01-07T10:32:46.432Z,10.20
2023-01-07T10:35:14.573Z,10.30
2023-01-07T10:37:42.424Z,10.20
2023-01-07T10:40:12.419Z,10.20
2023-01-07T10:42:42.066Z,10.20
2023-01-07T10:45:21.271Z,10.30
2023-01-07T10:47:54.512Z,10.20
2023-01-07T10:50:24.188Z,10.30
2023-01-07T10:52:57.001Z,10.30
2023-01-07T10:55:33.117Z,10.20
2023-01-07T10:58:00.099Z,10.30
2023-01-07T11:00:26.913Z,10.30
2023-01-07T11:02:56.765Z,10.30
2023-01-07T11:05:26.038Z,10.30
2023-01-07T11:07:56.552Z,10.30
2023-01-07T11:10:25.209Z,10.40
2023-01-07T11:12:52.125Z,10.40
2023-01-07T11:15:29.995Z,10.40
2023-01-07T11:17:59.775Z,10.50
2023-01-07T11:20:42.150Z,10.50
2023-01-07T11:23:27.939Z,10.50
2023-01-07T11:25:55.778Z,10.50
2023-01-07T11:28:26.911Z,10.50
2023-01-07T11:30:58.408Z,10.50
2023-01-07T11:34:02.244Z,10.50
2023-01-07T11:36:14.509Z,10.60
2023-01-07T11:38:42.084Z,10.50
2023-01-07T11:41:20.339Z,10.60
2023-01-07T11:43:48.665Z,10.60
2023-01-07T11:46:21.468Z,10.60
2023-01-07T11:48:54.467Z,10.60
2023-01-07T11:51:22.195Z,10.60
2023-01-07T11:53:49.069Z,10.60
2023-01-07T11:56:21.898Z,10.60
2023-01-07T11:58:50.384Z,10.60
2023-01-07T12:01:23.935Z,10.60
2023-01-07T12:04:04.483Z,10.60
2023-01-07T12:06:32.552Z,10.60
2023-01-07T12:09:08.589Z,10.60
2023-01-07T12:11:36.846Z,10.60
2023-01-07T12:14:08.665Z,10.60
2023-01-07T12:16:36.445Z,10.70
2023-01-07T12:19:22.654Z,10.70
2023-01-07T12:21:52.505Z,10.70
2023-01-07T12:24:31.386Z,10.60
2023-01-07T12:26:58.564Z,10.60
2023-01-07T12:29:25.415Z,10.60
2023-01-07T12:32:01.730Z,10.60
2023-01-07T12:34:34.916Z,10.60
2023-01-07T12:37:18.908Z,10.60
2023-01-07T12:39:46.176Z,10.60
2023-01-07T12:42:18.811Z,10.60
2023-01-07T12:44:54.997Z,10.60
2023-01-07T12:47:31.867Z,10.60
2023-01-07T12:50:22.822Z,10.60
2023-01-07T12:52:58.957Z,10.50
2023-01-07T12:55:28.489Z,10.50
2023-01-07T12:59:46.999Z,10.50
2023-01-07T13:02:35.388Z,10.50
2023-01-07T13:05:35.215Z,10.40
2023-01-07T13:08:27.868Z,10.40
2023-01-07T13:11:01.756Z,10.40
2023-01-07T13:13:40.382Z,10.30
2023-01-07T13:16:11.716Z,10.30
2023-01-07T13:18:39.010Z,10.20
2023-01-07T13:21:08.749Z,10.20
2023-01-07T13:23:35.691Z,10.20
2023-01-07T13:26:31.209Z,10.10
2023-01-07T13:29:16.213Z,10.00
2023-01-07T13:31:56.364Z,9.90
2023-01-07T13:34:59.107Z,9.90
2023-01-07T13:37:45.206Z,9.80
2023-01-07T13:40:27.538Z,9.70
2023-01-07T13:43:10.252Z,9.70
2023-01-07T13:45:40.285Z,9.70
2023-01-07T13:48:18.997Z,9.60
2023-01-07T13:51:00.734Z,9.60
2023-01-07T13:53:27.696Z,9.60
2023-01-07T13:56:17.547Z,9.60
2023-01-07T13:58:58.228Z,9.60
2023-01-07T14:01:27.565Z,9.50
2023-01-07T14:03:58.915Z,9.50
2023-01-07T14:06:39.113Z,9.50
2023-01-07T14:09:13.510Z,9.50
2023-01-07T14:12:02.672Z,9.50
2023-01-07T14:14:48.722Z,9.50
2023-01-07T14:17:56.773Z,9.60
2023-01-07T14:20:34.658Z,9.50
2023-01-07T14:23:07.350Z,9.50
2023-01-07T14:25:58.167Z,9.60
2023-01-07T14:28:43.878Z,9.60
2023-01-07T14:31:26.058Z,9.50
2023-01-07T14:34:07.224Z,9.50
2023-01-07T14:37:04.888Z,9.50
2023-01-07T14:39:37.209Z,9.50
2023-01-07T14:42:39.149Z,9.50
2023-01-07T14:45:41.126Z,9.50
2023-01-07T14:48:08.086Z,9.40
2023-01-07T14:50:38.880Z,9.40
2023-01-07T14:53:43.722Z,9.40
2023-01-07T14:56:52.967Z,9.40
2023-01-07T14:59:31.952Z,9.40
2023-01-07T15:02:28.651Z,9.40
2023-01-07T15:05:01.739Z,9.40
2023-01-07T15:07:34.085Z,9.40
2023-01-07T15:10:25.544Z,9.40
2023-01-07T15:13:16.831Z,9.50
2023-01-07T15:16:01.297Z,9.50
2023-01-07T15:18:43.849Z,9.50
2023-01-07T15:21:19.027Z,9.50
2023-01-07T15:24:07.761Z,9.40
2023-01-07T15:26:56.272Z,9.40
2023-01-07T15:29:44.932Z,9.40
2023-01-07T15:32:34.406Z,9.40
2023-01-07T15:35:09.527Z,9.30
2023-01-07T15:37:36.582Z,9.30
2023-01-07T15:40:03.753Z,9.30
2023-01-07T15:42:32.997Z,9.30
2023-01-07T15:45:00.674Z,9.20
2023-01-07T15:47:41.353Z,9.20
2023-01-07T15:50:36.601Z,9.20
2023-01-07T15:53:18.925Z,9.10
2023-01-07T15:56:08.130Z,9.10
2023-01-07T15:58:45.868Z,9.10
2023-01-07T16:01:22.268Z,9.10
2023-01-07T16:03:59.949Z,9.10
2023-01-07T16:06:32.130Z,9.10
2023-01-07T16:09:01.544Z,9.10
2023-01-07T16:11:31.247Z,9.10
2023-01-07T16:14:13.301Z,9.10
2023-01-07T16:16:40.436Z,9.10
2023-01-07T16:19:20.084Z,9.10
2023-01-07T16:21:59.703Z,9.10
2023-01-07T16:24:32.407Z,9.10
2023-01-07T16:27:05.319Z,9.10
2023-01-07T16:29:38.216Z,9.10
2023-01-07T16:32:07.071Z,9.10
2023-01-07T16:34:34.004Z,9.10
2023-01-07T16:37:02.885Z,9.10
2023-01-07T16:39:36.898Z,9.10
2023-01-07T16:42:22.899Z,9.10
2023-01-07T16:44:55.835Z,9.20
2023-01-07T16:47:24.423Z,9.20
2023-01-07T16:49:51.288Z,9.20
2023-01-07T16:52:21.041Z,9.20
2023-01-07T16:54:51.290Z,9.20
2023-01-07T16:57:41.650Z,9.20
2023-01-07T17:00:20.298Z,9.20
2023-01-07T17:02:59.851Z,9.20
2023-01-07T17:05:29.207Z,9.10
2023-01-07T17:08:00.332Z,9.20
2023-01-07T17:10:30.399Z,9.20
2023-01-07T17:12:59.271Z,9.20
2023-01-07T17:15:39.523Z,9.20
2023-01-07T17:18:13.041Z,9.20
2023-01-07T17:20:48.585Z,9.10
2023-01-07T17:23:27.666Z,9.10
2023-01-07T17:26:20.710Z,9.00
2023-01-07T17:28:59.631Z,8.90
2023-01-07T17:31:28.001Z,8.80
2023-01-07T17:33:56.186Z,8.70
2023-01-07T17:36:25.243Z,8.70
2023-01-07T17:38:53.059Z,8.60
2023-01-07T17:41:41.666Z,8.50
2023-01-07T17:44:12.685Z,8.50
2023-01-07T17:46:40.551Z,8.40
2023-01-07T17:49:09.201Z,8.30
2023-01-07T17:51:37.478Z,8.30
2023-01-07T17:54:06.840Z,8.20
2023-01-07T17:56:35.543Z,8.20
2023-01-07T17:59:02.607Z,8.20
2023-01-07T18:01:32.100Z,8.20
2023-01-07T18:03:59.884Z,8.20
2023-01-07T18:06:27.756Z,8.10
2023-01-07T18:08:56.631Z,8.10
2023-01-07T18:11:45.208Z,8.00
2023-01-07T18:14:16.143Z,8.00
2023-01-07T18:16:43.469Z,8.00
2023-01-07T18:19:14.865Z,7.90
2023-01-07T18:21:42.165Z,7.90
2023-01-07T18:24:16.648Z,7.90
2023-01-07T18:26:44.023Z,7.90
2023-01-07T18:29:12.045Z,7.90
2023-01-07T18:31:44.057Z,7.80
2023-01-07T18:34:13.400Z,7.80
2023-01-07T18:36:40.875Z,7.80
2023-01-07T18:39:11.905Z,7.80
2023-01-07T18:41:39.778Z,7.80
2023-01-07T18:44:06.830Z,7.80
2023-01-07T18:46:34.068Z,7.70
2023-01-07T18:49:01.180Z,7.70
2023-01-07T18:51:28.131Z,7.70
2023-01-07T18:53:55.053Z,7.70
2023-01-07T18:56:22.138Z,7.70
2023-01-07T18:58:53.256Z,7.70
2023-01-07T19:01:21.066Z,7.60
2023-01-07T19:03:48.341Z,7.60
2023-01-07T19:06:15.843Z,7.50
2023-01-07T19:08:42.942Z,7.50
2023-01-07T19:11:12.380Z,7.50
2023-01-07T19:13:40.039Z,7.50
2023-01-07T19:16:09.221Z,7.40
2023-01-07T19:18:36.478Z,7.40
2023-01-07T19:21:05.471Z,7.40
2023-01-07T19:23:32.649Z,7.30
2023-01-07T19:26:01.139Z,7.30
2023-01-07T19:28:28.230Z,7.30
2023-01-07T19:30:55.683Z,7.30
2023-01-07T19:33:22.806Z,7.20
2023-01-07T19:35:49.848Z,7.20
2023-01-07T19:38:16.841Z,7.10
2023-01-07T19:40:44.303Z,7.10
2023-01-07T19:43:12.401Z,7.10
2023-01-07T19:45:40.556Z,7.00
2023-01-07T19:48:07.817Z,7.00
2023-01-07T19:50:34.852Z,7.00
2023-01-07T19:53:01.888Z,6.90
2023-01-07T19:55:28.980Z,6.90
2023-01-07T19:57:58.628Z,6.90
2023-01-07T20:00:28.776Z,6.80
2023-01-07T20:02:55.831Z,6.80
2023-01-07T20:05:25.955Z,6.70
2023-01-07T20:07:55.220Z,6.70
2023-01-07T20:10:22.400Z,6.70
2023-01-07T20:12:50.864Z,6.60
2023-01-07T20:15:17.930Z,6.70
2023-01-07T20:17:47.686Z,6.60
2023-01-07T20:20:14.903Z,6.60
2023-01-07T20:22:48.628Z,6.60
2023-01-07T20:25:15.679Z,6.50
2023-01-07T20:27:42.644Z,6.50
2023-01-07T20:30:10.897Z,6.50
2023-01-07T20:32:37.989Z,6.50
2023-01-07T20:35:05.486Z,6.40
2023-01-07T20:37:32.629Z,6.40
2023-01-07T20:39:59.781Z,6.40
2023-01-07T20:42:27.143Z,6.40
2023-01-07T20:44:54.201Z,6.40
2023-01-07T20:47:21.300Z,6.40
2023-01-07T20:49:48.410Z,6.40
2023-01-07T20:52:15.490Z,6.40
2023-01-07T20:54:42.624Z,6.30
2023-01-07T20:57:09.667Z,6.40
2023-01-07T20:59:36.808Z,6.40
2023-01-07T21:02:04.276Z,6.40
2023-01-07T21:04:31.807Z,6.40
2023-01-07T21:06:59.013Z,6.40
2023-01-07T21:09:26.092Z,6.40
2023-01-07T21:11:53.177Z,6.30
2023-01-07T21:14:20.219Z,6.40
2023-01-07T21:16:47.547Z,6.40
2023-01-07T21:19:14.929Z,6.40
2023-01-07T21:21:42.289Z,6.30
2023-01-07T21:24:09.448Z,6.30
2023-01-07T21:26:36.476Z,6.30
2023-01-07T21:29:03.825Z,6.40
2023-01-07T21:31:30.880Z,6.40
2023-01-07T21:33:58.155Z,6.40
2023-01-07T21:36:27.236Z,6.40
2023-01-07T21:38:56.377Z,6.40
2023-01-07T21:41:25.237Z,6.40
2023-01-07T21:43:52.530Z,6.50
2023-01-07T21:46:22.608Z,6.50
2023-01-07T21:48:50.310Z,6.50
2023-01-07T21:51:27.977Z,6.50
2023-01-07T21:53:56.718Z,6.50
2023-01-07T21:56:25.855Z,6.50
2023-01-07T21:58:53.059Z,6.50
2023-01-07T22:01:20.335Z,6.50
2023-01-07T22:03:49.499Z,6.50
2023-01-07T22:06:25.403Z,6.50
2023-01-07T22:08:58.167Z,6.50
2023-01-07T22:11:25.881Z,6.50
2023-01-07T22:13:55.262Z,6.50
2023-01-07T22:16:23.888Z,6.50
2023-01-07T22:18:51.032Z,6.50
2023-01-07T22:21:19.323Z,6.50
2023-01-07T22:23:47.507Z,6.50
2023-01-07T22:26:16.650Z,6.50
2023-01-07T22:28:45.946Z,6.50
2023-01-07T22:31:22.880Z,6.50
2023-01-07T22:33:50.198Z,6.50
2023-01-07T22:36:44.066Z,6.50
2023-01-07T22:39:25.705Z,6.50
2023-01-07T22:41:56.999Z,6.50
2023-01-07T22:44:32.719Z,6.50
2023-01-07T22:47:00.273Z,6.50
2023-01-07T22:49:28.691Z,6.50
2023-01-07T22:51:56.118Z,6.50
2023-01-07T22:54:24.557Z,6.50
2023-01-07T22:56:51.793Z,6.50
2023-01-07T22:59:18.837Z,6.50
2023-01-07T23:01:45.868Z,6.50
2023-01-07T23:04:13.268Z,6.60
2023-01-07T23:06:40.465Z,6.50
2023-01-07T23:09:07.613Z,6.60
2023-01-07T23:11:50.644Z,6.60
2023-01-07T23:14:20.290Z,6.60
2023-01-07T23:16:47.640Z,6.60
2023-01-07T23:19:14.814Z,6.60
2023-01-07T23:21:43.844Z,6.60
2023-01-07T23:24:12.476Z,6.60
2023-01-07T23:26:39.963Z,6.70
2023-01-07T23:29:07.257Z,6.70
2023-01-07T23:31:35.667Z,6.70
2023-01-07T23:34:03.840Z,6.70
2023-01-07T23:36:30.989Z,6.70
2023-01-07T23:38:58.049Z,6.70
2023-01-07T23:41:25.041Z,6.70
2023-01-07T23:43:52.143Z,6.70
2023-01-07T23:46:19.201Z,6.80
2023-01-07T23:48:46.622Z,6.70
2023-01-07T23:51:19.616Z,6.70
2023-01-07T23:53:47.311Z,6.80
2023-01-07T23:56:14.975Z,6.80
2023-01-07T23:58:42.000Z,6.70
